Latest Weather Observations for Robe Airport

IDS60801

Issued at 10:51 am CST Tuesday 16 August 2022 (issued every 10 minutes, with the page automatically refreshed every 10 minutes)

About weather observations | Map of weather stations | Latest weather observations for SA | Other Formats
Station Details ID: 026105 Name: ROBE AIRFIELD Lat: -37.18 Lon: 139.81 Height: 3.0 m
Data from the previous 72 hours. | See also: Recent months at Robe Airport
Date/Time
CST
Temp
°C
App
Temp
°C
Dew
Point
°C
Rel
Hum
%
Delta-T
°C
Wind Press
QNH
hPa
Press
MSL
hPa
Rain since
9am
mm
Dir  Spd
km/h
Gust
km/h
Spd
kts
Gust
kts
16/10:30am 12.8 8.1 7.7 71 2.5 S 22 30 12 16 1018.8 1018.8 0.0
16/10:00am 12.9 8.7 8.4 74 2.2 S 20 32 11 17 1018.6 1018.6 0.0
16/09:30am 12.8 8.7 8.5 75 2.1 S 20 28 11 15 1018.6 1018.6 0.0
16/09:00am 12.2 7.5 7.7 74 2.2 S 22 33 12 18 1018.4 1018.4 0.0
16/08:30am 11.8 5.9 7.7 76 2.0 S 28 39 15 21 1018.2 1018.2 0.0
16/08:00am 12.1 6.8 7.0 71 2.4 SSW 24 37 13 20 1017.9 1017.9 0.0
16/07:30am 12.2 6.8 6.5 68 2.7 SSW 24 39 13 21 1017.5 1017.5 0.0
16/07:00am 12.0 6.7 6.7 70 2.5 SW 24 37 13 20 1016.8 1016.8 0.0
16/06:30am 11.7 7.4 7.2 74 2.2 SSW 19 32 10 17 1016.1 1016.1 0.0
16/06:00am 11.9 7.7 7.6 75 2.1 SW 19 33 10 18 1015.5 1015.5 0.0
16/05:30am 12.0 7.8 7.5 74 2.2 SSW 19 28 10 15 1014.6 1014.6 0.0
16/05:00am 11.2 7.9 8.1 81 1.5 SSW 15 20 8 11 1013.9 1013.9 0.0
16/04:30am 11.0 7.0 8.2 83 1.4 SSW 19 26 10 14 1013.4 1013.4 0.0
16/04:00am 11.7 7.6 8.6 81 1.5 SSW 20 33 11 18 1013.0 1013.0 0.0
16/03:30am 11.2 5.4 7.9 80 1.6 SSW 28 39 15 21 1013.0 1013.0 0.0
16/03:00am 11.5 7.2 8.0 79 1.7 SSW 20 35 11 19 1013.0 1013.0 0.0
16/02:30am 11.8 6.2 7.3 74 2.2 SW 26 35 14 19 1013.1 1013.1 0.0
16/02:00am 11.1 5.9 9.0 87 1.0 SSW 26 33 14 18 1013.4 1013.4 0.0
16/01:55am 11.1 5.6 9.0 87 1.0 SSW 28 48 15 26 1013.4 1013.4 0.0
16/01:30am 12.1 6.7 7.8 75 2.1 SW 26 43 14 23 1013.2 1013.2 0.0
16/01:00am 11.8 7.6 7.3 74 2.2 SW 19 30 10 16 1012.8 1012.8 0.0
16/12:30am 11.4 6.9 7.1 75 2.1 SSW 20 33 11 18 1012.8 1012.8 0.0
16/12:16am 12.3 5.9 6.8 69 2.6 SW 30 50 16 27 1012.6 1012.6 0.0
16/12:00am 12.1 6.3 6.2 67 2.8 SW 26 37 14 20 1012.4 1012.4 0.0
 
Date/Time
CST
Temp
°C
App
Temp
°C
Dew
Point
°C
Rel
Hum
%
Delta-T
°C
Wind Press
QNH
hPa
Press
MSL
hPa
Rain since
9am
mm
Dir  Spd
km/h
Gust
km/h
Spd
kts
Gust
kts
15/11:30pm 11.8 5.2 5.9 67 2.8 SW 30 43 16 23 1012.1 1012.1 0.0
15/11:00pm 12.0 6.3 6.7 70 2.5 SW 26 39 14 21 1011.8 1011.8 0.0
15/10:43pm 12.3 6.4 7.4 72 2.4 SW 28 46 15 25 1011.7 1011.7 0.0
15/10:30pm 12.1 6.8 6.8 70 2.5 SW 24 39 13 21 1011.6 1011.6 0.0
15/10:00pm 12.0 6.7 6.7 70 2.5 SW 24 43 13 23 1011.5 1011.5 0.0
15/09:30pm 11.5 6.4 7.8 78 1.8 SW 24 33 13 18 1011.5 1011.5 0.0
15/09:00pm 12.2 7.2 6.5 68 2.7 SW 22 39 12 21 1011.3 1011.3 0.0
15/08:30pm 11.9 7.4 7.0 72 2.3 SW 20 33 11 18 1011.0 1011.0 0.0
15/08:00pm 11.9 6.9 6.4 69 2.6 SW 22 33 12 18 1010.8 1010.8 0.0
15/07:30pm 11.9 6.6 6.6 70 2.5 SW 24 33 13 18 1010.4 1010.4 0.0
15/07:00pm 11.7 6.8 7.0 73 2.2 SW 22 32 12 17 1010.2 1010.2 0.0
15/06:30pm 11.2 6.9 7.1 76 2.0 SW 19 28 10 15 1009.9 1009.9 0.0
15/06:00pm 11.9 7.9 8.4 79 1.7 SW 19 30 10 16 1009.4 1009.4 0.0
15/05:30pm 12.0 8.0 8.3 78 1.8 SW 19 32 10 17 1008.9 1008.9 0.0
15/05:00pm 12.3 8.2 7.8 74 2.2 SW 19 32 10 17 1008.5 1008.5 0.0
15/04:30pm 12.5 7.6 8.6 77 1.9 SW 24 41 13 22 1008.3 1008.3 0.0
15/04:00pm 12.5 8.1 9.1 80 1.7 SW 22 35 12 19 1008.3 1008.3 0.0
15/03:30pm 13.2 9.3 9.3 77 2.0 SW 20 32 11 17 1008.1 1008.1 0.0
15/03:00pm 14.3 9.7 8.3 67 3.0 SW 22 35 12 19 1007.9 1007.9 0.0
15/02:30pm 14.4 10.1 7.7 64 3.3 SW 20 33 11 18 1007.7 1007.7 0.0
15/02:00pm 14.0 8.7 6.6 61 3.6 SW 24 35 13 19 1007.8 1007.8 0.0
15/01:30pm 14.5 9.4 7.5 63 3.5 SW 24 35 13 19 1007.8 1007.8 0.0
15/01:00pm 14.3 9.6 7.6 64 3.3 SW 22 35 12 19 1007.9 1007.9 0.0
15/12:30pm 14.3 9.4 7.1 62 3.5 SW 22 33 12 18 1008.0 1008.0 0.0
15/12:00pm 13.7 9.3 7.2 65 3.2 SW 20 32 11 17 1008.3 1008.3 0.0
15/11:30am 13.9 9.5 7.4 65 3.2 SW 20 30 11 16 1008.4 1008.4 0.0
15/11:00am 14.3 10.2 7.8 65 3.2 WSW 19 33 10 18 1008.5 1008.5 0.0
15/10:30am 14.3 10.1 7.6 64 3.3 SW 19 30 10 16 1008.6 1008.6 0.0
15/10:00am 13.6 9.0 6.5 62 3.4 SW 20 30 11 16 1008.4 1008.4 0.0
15/09:30am 13.5 9.6 7.3 66 3.0 SW 17 30 9 16 1008.4 1008.4 0.0
15/09:00am 13.3 9.8 7.1 66 3.0 WSW 15 28 8 15 1008.5 1008.5 0.0
15/08:30am 13.1 10.0 7.3 68 2.8 WSW 13 28 7 15 1008.4 1008.4 0.0
15/08:00am 12.5 9.4 7.2 70 2.6 WSW 13 20 7 11 1008.4 1008.4 0.0
15/07:30am 11.8 8.9 6.7 71 2.4 WSW 11 19 6 10 1008.3 1008.3 0.0
15/07:00am 11.5 8.7 7.0 74 2.1 WSW 11 17 6 9 1008.2 1008.2 0.0
15/06:30am 11.3 8.4 6.6 73 2.2 WSW 11 19 6 10 1008.1 1008.1 0.0
15/06:00am 11.4 8.6 6.9 74 2.1 SW 11 17 6 9 1008.1 1008.1 0.0
15/05:30am 11.3 8.5 7.0 75 2.1 WSW 11 20 6 11 1008.1 1008.1 0.0
15/05:00am 11.3 8.1 7.0 75 2.0 WSW 13 20 7 11 1008.0 1008.0 0.0
15/04:30am 11.2 8.5 7.3 77 1.9 WSW 11 20 6 11 1008.1 1008.1 0.0
15/04:00am 11.3 8.5 7.0 75 2.0 WSW 11 19 6 10 1008.2 1008.2 0.0
15/03:30am 11.4 8.3 7.3 76 2.0 WSW 13 20 7 11 1008.3 1008.3 0.0
15/03:00am 11.3 8.1 7.0 75 2.1 WSW 13 24 7 13 1008.4 1008.4 0.0
15/02:30am 11.3 8.1 7.0 75 2.1 WSW 13 22 7 12 1008.9 1008.9 0.0
15/02:00am 11.4 8.7 7.3 76 2.0 WSW 11 19 6 10 1009.3 1009.3 0.0
15/01:30am 11.6 8.5 7.1 74 2.2 WSW 13 22 7 12 1009.5 1009.5 0.0
15/01:00am 11.4 8.5 6.3 71 2.4 WSW 11 22 6 12 1009.6 1009.6 0.0
15/12:30am 11.7 8.1 6.8 72 2.3 WSW 15 24 8 13 1009.7 1009.7 0.0
15/12:00am 11.7 8.6 7.2 74 2.2 WSW 13 20 7 11 1010.0 1010.0 0.0
 
Date/Time
CST
Temp
°C
App
Temp
°C
Dew
Point
°C
Rel
Hum
%
Delta-T
°C
Wind Press
QNH
hPa
Press
MSL
hPa
Rain since
9am
mm
Dir  Spd
km/h
Gust
km/h
Spd
kts
Gust
kts
14/11:30pm 11.8 8.3 7.1 73 2.3 WSW 15 24 8 13 1010.2 1010.2 0.0
14/11:00pm 12.1 9.1 7.8 75 2.1 WSW 13 22 7 12 1010.5 1010.5 0.0
14/10:30pm 11.8 9.5 7.5 75 2.1 WSW 9 17 5 9 1010.8 1010.8 0.0
14/10:00pm 11.8 8.6 6.9 72 2.3 WSW 13 20 7 11 1011.0 1011.0 0.0
14/09:30pm 11.6 9.2 6.9 73 2.2 WSW 9 17 5 9 1011.0 1011.0 0.0
14/09:00pm 11.5 9.1 6.8 73 2.2 WSW 9 19 5 10 1011.2 1011.2 0.0
14/08:30pm 11.8 9.0 6.9 72 2.3 WSW 11 20 6 11 1011.2 1011.2 0.0
14/08:00pm 11.9 9.2 7.2 73 2.3 WSW 11 20 6 11 1011.2 1011.2 0.0
14/07:30pm 11.6 9.3 7.3 75 2.1 WSW 9 13 5 7 1011.1 1011.1 0.0
14/07:00pm 11.6 8.8 6.9 73 2.2 WSW 11 17 6 9 1011.0 1011.0 0.0
14/06:30pm 11.9 9.1 7.0 72 2.3 WSW 11 20 6 11 1011.1 1011.1 0.0
14/06:00pm 12.3 9.6 7.4 72 2.4 WSW 11 22 6 12 1011.2 1011.2 0.0
14/05:30pm 12.4 8.9 7.1 70 2.6 SW 15 26 8 14 1011.3 1011.3 0.0
14/05:00pm 12.6 9.1 7.3 70 2.6 SW 15 28 8 15 1011.4 1011.4 0.0
14/04:30pm 12.8 9.1 7.9 72 2.4 SW 17 28 9 15 1011.3 1011.3 0.0
14/04:00pm 12.9 9.0 7.1 68 2.8 SW 17 26 9 14 1011.2 1011.2 0.0
14/03:30pm 13.2 9.0 7.4 68 2.8 SW 19 32 10 17 1011.4 1011.4 0.0
14/03:00pm 13.9 9.3 6.7 62 3.5 SW 20 30 11 16 1011.5 1011.5 0.0
14/02:30pm 14.1 9.9 8.3 68 2.9 SW 20 33 11 18 1011.6 1011.6 0.0
14/02:00pm 14.1 10.0 7.9 66 3.1 SW 19 32 10 17 1011.7 1011.7 0.0
14/01:30pm 14.1 9.5 8.3 68 2.9 SW 22 37 12 20 1012.0 1012.0 0.0
14/01:00pm 14.2 9.4 7.5 64 3.3 SW 22 32 12 17 1012.3 1012.3 0.0
14/12:30pm 14.5 9.1 8.0 65 3.2 SSW 26 35 14 19 1012.8 1012.8 0.0
14/12:00pm 14.2 9.4 7.5 64 3.3 SSW 22 33 12 18 1012.8 1012.8 0.0
14/11:30am 14.3 9.8 8.7 69 2.8 SSW 22 33 12 18 1013.3 1013.3 0.0
14/11:00am 13.6 9.6 8.9 73 2.4 SSW 20 28 11 15 1013.8 1013.8 0.0
14/10:30am 13.4 9.3 8.5 72 2.4 SSW 20 26 11 14 1013.7 1013.7 0.0
14/10:00am 13.2 9.8 9.3 77 2.0 SSW 17 26 9 14 1013.4 1013.4 0.0
14/09:30am 13.2 10.3 9.6 79 1.8 SSW 15 20 8 11 1013.4 1013.4 0.0
14/09:00am 11.7 9.2 9.6 87 1.1 SSW 13 17 7 9 1013.5 1013.5 0.0
14/08:30am 11.8 10.2 11.5 98 0.2 SSW 11 17 6 9 1013.4 1013.4 0.0
14/08:28am 11.8 10.2 11.5 98 0.2 SSW 11 17 6 9 1013.4 1013.4 0.0
14/08:00am 6.8 6.0 6.5 98 0.1 CALM 0 0 0 0 1013.2 1013.2 0.0
14/07:30am 3.7 2.3 3.3 97 0.2 CALM 0 0 0 0 1013.2 1013.2 0.0
14/07:00am 2.9 1.3 2.5 97 0.2 CALM 0 0 0 0 1013.1 1013.1 0.0
14/06:30am 2.6 0.9 2.0 96 0.2 CALM 0 0 0 0 1013.1 1013.1 0.0
14/06:00am 4.1 2.7 3.7 97 0.2 CALM 0 0 0 0 1012.9 1012.9 0.0
14/05:30am 4.8 3.6 4.5 98 0.1 CALM 0 0 0 0 1012.8 1012.8 0.0
14/05:00am 3.9 2.5 3.5 97 0.2 CALM 0 0 0 0 1012.9 1012.9 0.0
14/04:30am 3.8 2.3 3.2 96 0.2 CALM 0 0 0 0 1012.8 1012.8 0.0
14/04:00am 4.8 3.5 4.1 95 0.3 CALM 0 0 0 0 1012.9 1012.9 0.0
14/03:30am 6.5 5.6 6.1 97 0.2 CALM 0 0 0 0 1012.9 1012.9 0.0
14/03:00am 5.6 4.5 5.0 96 0.3 CALM 0 0 0 0 1013.1 1013.1 0.0
14/02:30am 5.0 3.7 4.3 95 0.3 CALM 0 0 0 0 1013.1 1013.1 0.0
14/02:00am 5.8 4.7 5.1 95 0.3 CALM 0 0 0 0 1013.2 1013.2 0.0
14/01:30am 6.2 5.2 5.5 95 0.3 CALM 0 0 0 0 1013.3 1013.3 0.0
14/01:00am 7.4 6.6 6.7 95 0.3 CALM 0 0 0 0 1013.3 1013.3 0.0
14/12:30am 8.5 7.2 7.7 95 0.4 SE 4 7 2 4 1013.2 1013.2 0.0
14/12:00am 8.4 6.6 7.8 96 0.3 S 7 11 4 6 1013.2 1013.2 0.0
 
Date/Time
CST
Temp
°C
App
Temp
°C
Dew
Point
°C
Rel
Hum
%
Delta-T
°C
Wind Press
QNH
hPa
Press
MSL
hPa
Rain since
9am
mm
Dir  Spd
km/h
Gust
km/h
Spd
kts
Gust
kts
13/11:30pm 7.7 5.6 6.8 94 0.4 S 7 9 4 5 1013.3 1013.3 0.0
13/11:00pm 7.9 6.5 7.1 95 0.4 S 4 4 2 2 1013.2 1013.2 0.0
13/10:30pm 8.0 6.9 6.9 93 0.5 ESE 2 4 1 2 1013.2 1013.2 0.0
13/10:00pm 8.6 8.0 7.2 91 0.7 CALM 0 4 0 2 1013.2 1013.2 0.0
13/09:30pm 9.9 8.5 8.7 92 0.6 ESE 6 6 3 3 1013.3 1013.3 0.0
13/09:00pm 10.2 9.2 8.8 91 0.7 SSE 4 6 2 3 1013.3 1013.3 0.0
13/08:30pm 10.7 9.3 9.5 92 0.6 S 7 11 4 6 1013.4 1013.4 0.0
13/08:00pm 10.9 9.5 9.5 91 0.7 SSW 7 11 4 6 1013.1 1013.1 0.0
13/07:30pm 11.2 8.6 9.5 89 0.9 S 13 22 7 12 1012.8 1012.8 0.0
13/07:00pm 11.1 8.5 9.5 90 0.8 SSE 13 15 7 8 1012.7 1012.7 0.0
13/06:30pm 10.6 8.7 9.0 90 0.8 S 9 13 5 7 1012.6 1012.6 0.0
13/06:00pm 10.6 9.1 9.0 90 0.8 S 7 9 4 5 1012.3 1012.3 0.0
13/05:30pm 11.6 9.7 9.2 85 1.2 S 9 11 5 6 1012.1 1012.1 0.0
13/05:00pm 12.4 9.4 9.1 80 1.7 S 15 22 8 12 1011.8 1011.8 0.0
13/04:30pm 12.7 10.1 9.3 80 1.7 S 13 17 7 9 1011.7 1011.7 0.0
13/04:00pm 13.0 9.9 8.9 76 2.1 S 15 20 8 11 1011.7 1011.7 0.0
13/03:30pm 12.8 9.4 9.3 79 1.8 S 17 24 9 13 1011.8 1011.8 0.0
13/03:00pm 13.2 9.7 8.7 74 2.3 S 17 22 9 12 1011.5 1011.5 0.0
13/02:30pm 13.8 10.3 8.6 71 2.6 SSW 17 22 9 12 1011.4 1011.4 0.0
13/02:00pm 13.4 10.4 9.1 75 2.2 S 15 22 8 12 1011.5 1011.5 0.0
13/01:30pm 13.8 11.6 9.5 75 2.2 S 11 19 6 10 1011.5 1011.5 0.0
13/01:00pm 13.7 11.2 9.6 76 2.1 S 13 20 7 11 1011.7 1011.7 0.0
13/12:30pm 13.7 11.0 9.0 73 2.4 S 13 19 7 10 1012.0 1012.0 0.0
13/12:00pm 13.8 12.5 9.3 74 2.3 SSE 6 13 3 7 1012.2 1012.2 0.0
13/11:30am 12.6 11.6 8.9 78 1.9 S 4 7 2 4 1012.6 1012.6 0.0
13/11:00am 12.1 10.3 9.3 83 1.4 S 9 13 5 7 1012.7 1012.7 0.0

Other formats

Comma delimited format used in spreadsheet applications
http://www.bom.gov.au/fwo/IDS60801/IDS60801.95816.axf

JavaScript Object Notation format (JSON) in row-major order
http://www.bom.gov.au/fwo/IDS60801/IDS60801.95816.json

Data quality

Most of these data are generated automatically and are frequently updated. Quality checks on data are not normally performed. It is possible for incorrect values to appear. Refer to information at About Latest Weather Observations and please check the disclaimer before using these data.